Time;durP1;ratioP1;P1;durP2;ratioP2;P2;SDS_P1;SDS_P2;PMS_P1;PMS_P2;Temp;Humidity;BMP_temperature;BMP_pressure;BME280_temperature;BME280_humidity;BME280_pressure;Samples;Min_cycle;Max_cycle;Signal;HPM_P1;HPM_P2
2023/08/02 00:01:01;;;;;;;1999.90;999.90;;;15.50;99.90;;;;;;5075463;28;20041;-72
2023/08/02 00:03:27;;;;;;;1999.90;999.90;;;15.30;99.90;;;;;;5075882;28;20451;-72
2023/08/02 00:05:54;;;;;;;1999.90;999.90;;;15.30;99.90;;;;;;5073946;28;20032;-72
2023/08/02 00:08:20;;;;;;;1999.90;999.90;;;15.30;99.90;;;;;;5075744;28;20063;-72
2023/08/02 00:10:45;;;;;;;1999.90;999.90;;;15.30;99.90;;;;;;5075188;28;20067;-71
2023/08/02 00:13:11;;;;;;;1999.90;999.90;;;15.30;99.90;;;;;;5075385;28;20048;-72
2023/08/02 00:15:40;;;;;;;1999.90;999.90;;;15.30;99.90;;;;;;5075140;28;20045;-72
2023/08/02 00:18:06;;;;;;;1999.90;999.90;;;15.40;99.90;;;;;;5075589;28;20032;-72
2023/08/02 00:20:31;;;;;;;1999.90;999.90;;;15.40;99.90;;;;;;5075496;28;20032;-72
2023/08/02 00:22:57;;;;;;;1999.90;999.90;;;15.30;99.90;;;;;;5075141;28;20119;-72
2023/08/02 00:25:23;;;;;;;1999.90;999.90;;;15.30;99.90;;;;;;5075178;28;20059;-71
2023/08/02 00:27:49;;;;;;;1999.90;999.90;;;15.20;99.90;;;;;;5075270;28;20036;-71
2023/08/02 00:30:14;;;;;;;1999.90;999.90;;;15.10;99.90;;;;;;5075423;28;20040;-72
2023/08/02 00:32:44;;;;;;;1999.90;999.90;;;15.20;99.90;;;;;;5075303;28;20516;-72
2023/08/02 00:35:10;;;;;;;1999.90;999.90;;;15.10;99.90;;;;;;5074675;28;20036;-72
2023/08/02 00:37:35;;;;;;;1999.90;999.90;;;15.20;99.90;;;;;;5075010;28;20110;-70
2023/08/02 00:40:01;;;;;;;1999.90;999.90;;;15.20;99.90;;;;;;5075298;28;20029;-72
2023/08/02 00:42:26;;;;;;;1999.90;999.90;;;15.10;99.90;;;;;;5074391;28;20528;-72
2023/08/02 00:44:52;;;;;;;1999.90;999.90;;;15.10;99.90;;;;;;5074961;28;20388;-72
2023/08/02 00:47:18;;;;;;;1999.90;999.90;;;15.10;99.90;;;;;;5075097;28;20041;-72
2023/08/02 00:49:45;;;;;;;1999.90;999.90;;;15.10;99.90;;;;;;5075153;28;20476;-72
2023/08/02 00:52:11;;;;;;;1999.90;999.90;;;15.10;99.90;;;;;;5074683;28;20487;-72
2023/08/02 00:54:36;;;;;;;1999.90;999.90;;;15.10;99.90;;;;;;5074477;28;20029;-70
2023/08/02 00:57:02;;;;;;;1999.90;999.90;;;15.00;99.90;;;;;;5075033;28;20785;-72
2023/08/02 00:59:28;;;;;;;1999.90;999.90;;;15.00;99.90;;;;;;5074931;28;20032;-72
2023/08/02 01:01:53;;;;;;;1999.90;999.90;;;15.00;99.90;;;;;;5074882;28;20045;-72
2023/08/02 01:04:19;;;;;;;1999.90;999.90;;;15.00;99.90;;;;;;5074641;28;20075;-71
2023/08/02 01:06:53;;;;;;;1999.90;999.90;;;15.00;99.90;;;;;;5074940;28;20039;-72
2023/08/02 01:09:29;;;;;;;1999.90;999.90;;;15.00;99.90;;;;;;5074971;28;20104;-72
2023/08/02 01:12:01;;;;;;;1999.90;999.90;;;15.10;99.90;;;;;;5074453;28;20035;-72
2023/08/02 01:14:28;;;;;;;1999.90;999.90;;;15.10;99.90;;;;;;5074458;28;20025;-72
2023/08/02 01:16:54;;;;;;;1999.90;999.90;;;15.00;99.90;;;;;;5074797;28;20048;-72
2023/08/02 01:19:21;;;;;;;1999.90;999.90;;;15.00;99.90;;;;;;5074609;28;20051;-72
2023/08/02 01:21:47;;;;;;;1999.90;999.90;;;15.00;99.90;;;;;;5074264;28;20140;-72
2023/08/02 01:24:13;;;;;;;1999.90;999.90;;;15.00;99.90;;;;;;5071971;28;20391;-72
2023/08/02 01:26:43;;;;;;;1999.90;999.90;;;15.00;99.90;;;;;;5073113;28;20468;-72
2023/08/02 01:29:15;;;;;;;1999.90;999.90;;;14.90;99.90;;;;;;5074660;28;20086;-71
2023/08/02 01:31:42;;;;;;;1999.90;999.90;;;15.00;99.90;;;;;;5073792;28;20029;-71
2023/08/02 01:34:09;;;;;;;1999.90;999.90;;;14.90;99.90;;;;;;5074135;28;20057;-72
2023/08/02 01:36:34;;;;;;;1999.90;999.90;;;14.80;99.90;;;;;;5074444;28;20112;-72
2023/08/02 01:39:00;;;;;;;1999.90;999.90;;;14.70;99.90;;;;;;5073738;28;20605;-72
2023/08/02 01:41:25;;;;;;;1999.90;999.90;;;14.60;99.90;;;;;;5094542;23;20123;-71
2023/08/02 01:43:51;;;;;;;1999.90;999.90;;;14.60;99.90;;;;;;5054926;28;20045;-73
2023/08/02 01:46:16;;;;;;;1999.90;999.90;;;14.60;99.90;;;;;;5074337;28;20037;-71
2023/08/02 01:48:42;;;;;;;1999.90;999.90;;;14.60;99.90;;;;;;5074372;28;20033;-71
2023/08/02 01:51:08;;;;;;;1999.90;999.90;;;14.60;99.90;;;;;;5074399;28;20033;-70
2023/08/02 01:53:34;;;;;;;1999.90;999.90;;;14.50;99.90;;;;;;5073921;28;20475;-70
2023/08/02 01:55:59;;;;;;;1999.90;999.90;;;14.60;99.90;;;;;;5073828;28;20044;-70
2023/08/02 01:58:25;;;;;;;1999.90;999.90;;;14.70;99.90;;;;;;5072486;28;20033;-70
2023/08/02 02:00:51;;;;;;;1999.90;999.90;;;14.80;99.90;;;;;;5073973;28;20044;-71
2023/08/02 02:03:16;;;;;;;1999.90;999.90;;;14.80;99.90;;;;;;5073904;28;20037;-70
2023/08/02 02:05:54;;;;;;;1999.90;999.90;;;14.90;99.90;;;;;;5073839;28;20036;-70
2023/08/02 02:08:19;;;;;;;1999.90;999.90;;;15.00;99.90;;;;;;5074061;28;20443;-71
2023/08/02 02:10:53;;;;;;;1999.90;999.90;;;15.00;99.90;;;;;;5073762;28;20033;-70
2023/08/02 02:13:21;;;;;;;1999.90;999.90;;;15.00;99.90;;;;;;5073659;28;20510;-70
2023/08/02 02:15:46;;;;;;;1999.90;999.90;;;15.10;99.90;;;;;;5073594;28;20029;-71
2023/08/02 02:18:12;;;;;;;1999.90;999.90;;;15.10;99.90;;;;;;5072315;28;20036;-71
2023/08/02 02:20:38;;;;;;;1999.90;999.90;;;15.30;99.90;;;;;;5072336;28;20033;-70
2023/08/02 02:23:03;;;;;;;1999.90;999.90;;;15.40;99.90;;;;;;5073460;28;20116;-70
2023/08/02 02:25:29;;;;;;;1999.90;999.90;;;15.40;99.90;;;;;;5072089;28;20035;-70
2023/08/02 02:27:54;;;;;;;1999.90;999.90;;;15.50;99.90;;;;;;5073826;28;20562;-72
2023/08/02 02:30:21;;;;;;;1999.90;999.90;;;15.40;99.90;;;;;;5072301;28;20029;-70
2023/08/02 02:32:46;;;;;;;1999.90;999.90;;;15.50;99.90;;;;;;5073308;28;20488;-70
2023/08/02 02:35:12;;;;;;;1999.90;999.90;;;15.50;99.90;;;;;;5074847;28;20035;-70
2023/08/02 02:37:38;;;;;;;1999.90;999.90;;;15.60;99.90;;;;;;5077271;28;20039;-70
2023/08/02 02:40:08;;;;;;;1999.90;999.90;;;15.50;99.90;;;;;;5076845;28;20124;-70
2023/08/02 02:42:34;;;;;;;1999.90;999.90;;;15.50;99.90;;;;;;5075361;28;20072;-71
2023/08/02 02:44:59;;;;;;;1999.90;999.90;;;15.40;99.90;;;;;;5075254;28;20037;-72
2023/08/02 02:47:25;;;;;;;1999.90;999.90;;;15.50;99.90;;;;;;5076839;28;20037;-70
2023/08/02 02:49:51;;;;;;;1999.90;999.90;;;15.70;99.90;;;;;;5077072;28;20403;-70
2023/08/02 02:52:17;;;;;;;1999.90;999.90;;;15.70;99.90;;;;;;5076730;28;20108;-71
2023/08/02 02:54:42;;;;;;;1999.90;999.90;;;15.70;99.90;;;;;;5074822;28;20484;-72
2023/08/02 02:57:08;;;;;;;1999.90;999.90;;;15.70;99.90;;;;;;5076745;28;20072;-70
2023/08/02 02:59:33;;;;;;;1999.90;999.90;;;15.60;99.90;;;;;;5076925;28;20040;-70
2023/08/02 03:01:59;;;;;;;1999.90;999.90;;;15.60;99.90;;;;;;5076431;28;20037;-71
2023/08/02 03:04:26;;;;;;;1999.90;999.90;;;15.50;99.90;;;;;;5076453;28;20152;-72
2023/08/02 03:06:52;;;;;;;1999.90;999.90;;;15.60;99.90;;;;;;5076627;28;20487;-71
2023/08/02 03:09:18;;;;;;;1999.90;999.90;;;15.70;99.90;;;;;;5074906;28;20040;-72
2023/08/02 03:11:43;;;;;;;1999.90;999.90;;;15.70;99.90;;;;;;5076263;28;20037;-70
2023/08/02 03:14:09;;;;;;;1999.90;999.90;;;15.70;99.90;;;;;;5076355;28;20040;-70
2023/08/02 03:16:34;;;;;;;1999.90;999.90;;;15.70;99.90;;;;;;5076883;28;20152;-72
2023/08/02 03:19:00;;;;;;;1999.90;999.90;;;15.70;99.90;;;;;;5075009;28;20040;-73
2023/08/02 03:21:26;;;;;;;1999.90;999.90;;;15.80;99.90;;;;;;5076266;28;20037;-72
2023/08/02 03:23:51;;;;;;;1999.90;999.90;;;15.80;99.90;;;;;;5076158;28;20036;-72
2023/08/02 03:26:17;;;;;;;1999.90;999.90;;;15.90;99.90;;;;;;5076358;28;20032;-72
2023/08/02 03:28:42;;;;;;;1999.90;999.90;;;15.90;99.90;;;;;;5076482;28;20037;-72
2023/08/02 03:31:08;;;;;;;1999.90;999.90;;;15.90;99.90;;;;;;5076371;28;20045;-72
2023/08/02 03:33:33;;;;;;;1999.90;999.90;;;15.90;99.90;;;;;;5074290;28;20060;-72
2023/08/02 03:35:59;;;;;;;1999.90;999.90;;;15.90;99.90;;;;;;5074494;28;20064;-73
2023/08/02 03:38:25;;;;;;;1999.90;999.90;;;16.00;99.90;;;;;;5076368;28;20029;-72
2023/08/02 03:40:51;;;;;;;1999.90;999.90;;;16.10;99.90;;;;;;5076271;28;20033;-72
2023/08/02 03:43:16;;;;;;;1999.90;999.90;;;16.10;99.90;;;;;;5076045;28;20083;-73
2023/08/02 03:45:42;;;;;;;1999.90;999.90;;;16.20;99.90;;;;;;5075677;28;20396;-72
2023/08/02 03:48:07;;;;;;;1999.90;999.90;;;16.20;99.90;;;;;;5075522;28;20033;-72
2023/08/02 03:50:34;;;;;;;1999.90;999.90;;;16.20;99.90;;;;;;5075915;28;20032;-72
2023/08/02 03:53:00;;;;;;;1999.90;999.90;;;16.30;99.90;;;;;;5075738;28;20472;-72
2023/08/02 03:55:25;;;;;;;1999.90;999.90;;;16.20;99.90;;;;;;5074270;28;20025;-72
2023/08/02 03:57:51;;;;;;;1999.90;999.90;;;16.30;99.90;;;;;;5075886;28;20109;-72
2023/08/02 04:00:16;;;;;;;1999.90;999.90;;;16.30;99.90;;;;;;5075829;28;20504;-73
2023/08/02 04:02:43;;;;;;;1999.90;999.90;;;16.30;99.90;;;;;;5075764;28;20497;-72
2023/08/02 04:05:09;;;;;;;1999.90;999.90;;;16.30;99.90;;;;;;5075405;28;20044;-72
2023/08/02 04:07:34;;;;;;;1999.90;999.90;;;16.30;99.90;;;;;;5074160;28;20059;-72
2023/08/02 04:10:00;;;;;;;1999.90;999.90;;;16.40;99.90;;;;;;5074093;28;20026;-72
2023/08/02 04:12:25;;;;;;;1999.90;999.90;;;16.30;99.90;;;;;;5075592;28;20040;-74
2023/08/02 04:14:51;;;;;;;1999.90;999.90;;;16.30;99.90;;;;;;5075518;28;20029;-72
2023/08/02 04:17:16;;;;;;;1999.90;999.90;;;16.40;99.90;;;;;;5075828;28;20033;-72
2023/08/02 04:19:42;;;;;;;1999.90;999.90;;;16.20;99.90;;;;;;5073705;28;20052;-73
2023/08/02 04:22:07;;;;;;;1999.90;999.90;;;16.30;99.90;;;;;;5075273;28;20424;-72
2023/08/02 04:24:33;;;;;;;1999.90;999.90;;;16.30;99.90;;;;;;5075391;28;20033;-73
2023/08/02 04:26:58;;;;;;;1999.90;999.90;;;16.30;99.90;;;;;;5075402;28;20041;-72
2023/08/02 04:29:24;;;;;;;1999.90;999.90;;;16.30;99.90;;;;;;5073914;28;20031;-72
2023/08/02 04:31:50;;;;;;;1999.90;999.90;;;16.30;99.90;;;;;;5072735;28;20039;-72
2023/08/02 04:34:15;;;;;;;1999.90;999.90;;;16.30;99.90;;;;;;5075020;28;20405;-73
2023/08/02 04:36:41;;;;;;;1999.90;999.90;;;16.30;99.90;;;;;;5073153;28;20412;-74
2023/08/02 04:39:07;;;;;;;1999.90;999.90;;;16.40;99.90;;;;;;5067072;28;20029;-73
2023/08/02 04:41:33;;;;;;;1999.90;999.90;;;16.40;99.90;;;;;;5071445;28;20496;-74
2023/08/02 04:43:59;;;;;;;1999.90;999.90;;;16.40;99.90;;;;;;5073425;28;20061;-73
2023/08/02 04:46:29;;;;;;;1999.90;999.90;;;16.40;99.90;;;;;;5074855;28;20510;-74
2023/08/02 04:48:54;;;;;;;1999.90;999.90;;;16.40;99.90;;;;;;5057758;28;20029;-73
2023/08/02 04:51:20;;;;;;;1999.90;999.90;;;16.50;99.90;;;;;;5054717;28;20489;-74
2023/08/02 04:53:48;;;;;;;1999.90;999.90;;;16.50;99.90;;;;;;5055065;28;20044;-73
2023/08/02 04:56:15;;;;;;;1999.90;999.90;;;16.50;99.90;;;;;;5053091;28;20034;-73
2023/08/02 04:58:43;;;;;;;1999.90;999.90;;;16.50;99.90;;;;;;5053641;28;20029;-75
2023/08/02 05:01:09;;;;;;;1999.90;999.90;;;16.60;99.90;;;;;;5055065;28;20050;-74
2023/08/02 05:03:35;;;;;;;1999.90;999.90;;;16.60;99.90;;;;;;5063578;28;21891;-75
2023/08/02 05:06:03;;;;;;;1999.90;999.90;;;16.60;99.90;;;;;;5056679;28;20139;-73
2023/08/02 05:08:34;;;;;;;1999.90;999.90;;;16.60;99.90;;;;;;5054646;28;20044;-73
2023/08/02 05:11:00;;;;;;;1999.90;999.90;;;16.60;99.90;;;;;;5054377;28;20115;-74
2023/08/02 05:13:26;;;;;;;1999.90;999.90;;;16.60;99.90;;;;;;5054385;28;20167;-74
2023/08/02 05:15:54;;;;;;;1999.90;999.90;;;16.50;99.90;;;;;;5058863;28;20037;-74
2023/08/02 05:18:22;;;;;;;1999.90;999.90;;;16.50;99.90;;;;;;5073089;28;20406;-74
2023/08/02 05:20:48;;;;;;;1999.90;999.90;;;16.50;99.90;;;;;;5071563;28;20108;-75
2023/08/02 05:23:14;;;;;;;1999.90;999.90;;;16.40;99.90;;;;;;5073622;28;20045;-73
2023/08/02 05:25:40;;;;;;;1999.90;999.90;;;16.30;99.90;;;;;;5084114;28;20038;-74
2023/08/02 05:28:06;;;;;;;1999.90;999.90;;;16.30;99.90;;;;;;5074170;28;20590;-73
2023/08/02 05:30:35;;;;;;;1999.90;999.90;;;16.20;99.90;;;;;;5073227;28;20104;-73
2023/08/02 05:33:01;;;;;;;1999.90;999.90;;;16.20;99.90;;;;;;5061896;28;20065;-74
2023/08/02 05:35:29;;;;;;;1999.90;999.90;;;16.20;99.90;;;;;;5054185;28;20511;-74
2023/08/02 05:37:55;;;;;;;1999.90;999.90;;;16.20;99.90;;;;;;5054296;28;20610;-74
2023/08/02 05:40:21;;;;;;;1999.90;999.90;;;16.00;99.90;;;;;;5052636;28;20107;-73
2023/08/02 05:42:47;;;;;;;1999.90;999.90;;;15.80;99.90;;;;;;5073120;28;20052;-78
2023/08/02 05:45:12;;;;;;;1999.90;999.90;;;15.60;99.90;;;;;;5072560;28;20033;-74
2023/08/02 05:47:38;;;;;;;1999.90;999.90;;;15.40;99.90;;;;;;5074322;28;20041;-74
2023/08/02 05:50:04;;;;;;;1999.90;999.90;;;15.20;99.90;;;;;;5073763;28;20036;-74
2023/08/02 05:52:29;;;;;;;1999.90;999.90;;;15.10;99.90;;;;;;5057272;28;20033;-74
2023/08/02 05:54:55;;;;;;;1999.90;999.90;;;15.10;99.90;;;;;;5053669;28;20034;-74
2023/08/02 05:57:21;;;;;;;1999.90;999.90;;;15.00;99.90;;;;;;5066719;28;20033;-74
2023/08/02 05:59:48;;;;;;;1999.90;999.90;;;14.90;99.90;;;;;;5074093;28;20551;-73
2023/08/02 06:02:14;;;;;;;1999.90;999.90;;;14.90;99.90;;;;;;5059061;28;20594;-73
2023/08/02 06:04:42;;;;;;;1999.90;999.90;;;14.90;99.90;;;;;;5053565;28;20038;-74
2023/08/02 06:07:07;;;;;;;1999.90;999.90;;;14.90;99.90;;;;;;5053793;28;20034;-74
2023/08/02 06:09:33;;;;;;;1999.90;999.90;;;14.80;99.90;;;;;;5054121;28;20034;-73
2023/08/02 06:11:59;;;;;;;1999.90;999.90;;;14.80;99.90;;;;;;5068370;28;20140;-73
2023/08/02 06:14:25;;;;;;;1999.90;999.90;;;14.80;99.90;;;;;;5076111;28;20831;-74
2023/08/02 06:16:50;;;;;;;1999.90;999.90;;;14.90;99.90;;;;;;5060433;28;20038;-75
2023/08/02 06:19:16;;;;;;;1999.90;999.90;;;14.90;99.90;;;;;;5058378;28;20498;-74
2023/08/02 06:21:44;;;;;;;1999.90;999.90;;;14.80;99.90;;;;;;5069256;28;20083;-74
2023/08/02 06:24:09;;;;;;;1999.90;999.90;;;14.80;99.90;;;;;;5056708;28;20034;-74
2023/08/02 06:26:35;;;;;;;1999.90;999.90;;;14.80;99.90;;;;;;5068531;28;20037;-73
2023/08/02 06:29:01;;;;;;;1999.90;999.90;;;14.80;99.90;;;;;;5075747;28;20060;-75
2023/08/02 06:31:27;;;;;;;1999.90;999.90;;;14.80;99.90;;;;;;5076854;28;20040;-75
2023/08/02 06:33:52;;;;;;;1999.90;999.90;;;14.90;99.90;;;;;;5077518;28;20048;-80
2023/08/02 06:36:18;;;;;;;1999.90;999.90;;;14.80;99.90;;;;;;5077668;28;20044;-75
2023/08/02 06:38:46;;;;;;;1999.90;999.90;;;14.90;99.90;;;;;;5072622;28;20064;-77
2023/08/02 06:41:12;;;;;;;1999.90;999.90;;;14.90;99.90;;;;;;5064956;28;20041;-75
2023/08/02 06:43:38;;;;;;;1999.90;999.90;;;14.90;99.90;;;;;;5058203;28;20052;-77
2023/08/02 06:46:04;;;;;;;1999.90;999.90;;;14.80;99.90;;;;;;5058902;28;20386;-77
2023/08/02 06:48:30;;;;;;;1999.90;999.90;;;14.90;99.90;;;;;;5057562;28;20120;-77
2023/08/02 06:50:55;;;;;;;1999.90;999.90;;;14.90;99.90;;;;;;5055731;28;20037;-78
2023/08/02 06:53:21;;;;;;;1999.90;999.90;;;14.90;99.90;;;;;;5056619;28;20465;-75
2023/08/02 06:55:47;;;;;;;1999.90;999.90;;;15.00;99.90;;;;;;5069463;28;20044;-75
2023/08/02 06:58:12;;;;;;;1999.90;999.90;;;15.10;99.90;;;;;;5056695;28;20045;-74
2023/08/02 07:00:39;;;;;;;1999.90;999.90;;;15.20;99.90;;;;;;5057822;28;20040;-75
2023/08/02 07:03:05;;;;;;;1999.90;999.90;;;15.30;99.90;;;;;;5056133;28;20503;-75
2023/08/02 07:05:31;;;;;;;1999.90;999.90;;;15.50;99.90;;;;;;5054613;28;20033;-75
2023/08/02 07:07:58;;;;;;;1999.90;999.90;;;15.50;99.90;;;;;;5056313;28;20453;-75
2023/08/02 07:10:25;;;;;;;1999.90;999.90;;;15.70;99.90;;;;;;5056114;28;20519;-75
2023/08/02 07:12:50;;;;;;;1999.90;999.90;;;15.80;99.90;;;;;;5075971;28;20049;-74
2023/08/02 07:15:17;;;;;;;1999.90;999.90;;;15.80;99.90;;;;;;5074895;28;20032;-75
2023/08/02 07:17:44;;;;;;;1999.90;999.90;;;15.70;99.90;;;;;;5076625;28;20073;-73
2023/08/02 07:20:10;;;;;;;1999.90;999.90;;;15.90;99.90;;;;;;5076143;28;20026;-73
2023/08/02 07:22:39;;;;;;;1999.90;999.90;;;15.80;99.90;;;;;;5073678;28;20048;-73
2023/08/02 07:25:05;;;;;;;1999.90;999.90;;;15.90;99.90;;;;;;5076085;28;20083;-73
2023/08/02 07:27:31;;;;;;;1999.90;999.90;;;15.90;99.90;;;;;;5075823;28;20040;-73
2023/08/02 07:29:56;;;;;;;1999.90;999.90;;;15.90;99.90;;;;;;5062503;28;20162;-73
2023/08/02 07:32:23;;;;;;;1999.90;999.90;;;16.00;99.90;;;;;;5057120;28;20041;-73
2023/08/02 07:34:48;;;;;;;1999.90;999.90;;;15.90;99.90;;;;;;5055574;28;20576;-73
2023/08/02 07:37:14;;;;;;;1999.90;999.90;;;16.00;99.90;;;;;;5055739;28;20033;-73
2023/08/02 07:39:40;;;;;;;1999.90;999.90;;;16.00;99.90;;;;;;5063772;28;20037;-73
2023/08/02 07:42:07;;;;;;;1999.90;999.90;;;16.20;99.90;;;;;;5079443;23;20054;-69
2023/08/02 07:44:32;;;;;;;1999.90;999.90;;;16.20;99.90;;;;;;5074880;28;20470;-68
2023/08/02 07:46:58;;;;;;;1999.90;999.90;;;16.30;99.90;;;;;;5075585;28;20060;-69
2023/08/02 07:49:23;;;;;;;1999.90;999.90;;;16.30;99.90;;;;;;5075898;28;20037;-68
2023/08/02 07:51:49;;;;;;;1999.90;999.90;;;16.30;99.90;;;;;;5075684;28;20037;-69
2023/08/02 07:54:14;;;;;;;1999.90;999.90;;;16.30;99.90;;;;;;5073283;28;20041;-69
2023/08/02 07:56:40;;;;;;;1999.90;999.90;;;16.20;99.90;;;;;;5062292;28;20595;-69
2023/08/02 07:59:06;;;;;;;1999.90;999.90;;;16.30;99.90;;;;;;5063581;28;20033;-68
2023/08/02 08:01:31;;;;;;;1999.90;999.90;;;16.20;99.90;;;;;;5063648;28;20504;-69
2023/08/02 08:03:57;;;;;;;1999.90;999.90;;;16.20;99.90;;;;;;5055144;28;20029;-75
2023/08/02 08:06:23;;;;;;;1999.90;999.90;;;16.20;99.90;;;;;;5055548;28;20074;-68
2023/08/02 08:08:50;;;;;;;1999.90;999.90;;;16.30;99.90;;;;;;5055342;28;20061;-72
2023/08/02 08:11:15;;;;;;;1999.90;999.90;;;16.40;99.90;;;;;;5057290;28;20064;-69
2023/08/02 08:13:41;;;;;;;1999.90;999.90;;;16.40;99.90;;;;;;5055239;28;20037;-68
2023/08/02 08:16:07;;;;;;;1999.90;999.90;;;16.40;99.90;;;;;;5055234;28;20041;-68
2023/08/02 08:18:33;;;;;;;1999.90;999.90;;;16.40;99.90;;;;;;5055334;28;20053;-69
2023/08/02 08:21:01;;;;;;;1999.90;999.90;;;16.40;99.90;;;;;;5063155;28;20495;-68
2023/08/02 08:23:27;;;;;;;1999.90;999.90;;;16.50;99.90;;;;;;5063881;28;20037;-69
2023/08/02 08:25:53;;;;;;;1999.90;999.90;;;16.70;99.90;;;;;;5061815;28;20033;-69
2023/08/02 08:28:19;;;;;;;1999.90;999.90;;;16.70;99.90;;;;;;5075489;28;20037;-72
2023/08/02 08:30:44;;;;;;;1999.90;999.90;;;16.60;99.90;;;;;;5075031;28;20041;-69
2023/08/02 08:33:10;;;;;;;1999.90;999.90;;;16.70;99.90;;;;;;5073361;28;20033;-69
2023/08/02 08:35:35;;;;;;;1999.90;999.90;;;16.70;99.90;;;;;;5071594;28;20029;-70
2023/08/02 08:38:02;;;;;;;1999.90;999.90;;;16.80;99.90;;;;;;5058153;28;20041;-73
2023/08/02 08:40:27;;;;;;;1999.90;999.90;;;16.80;99.90;;;;;;5058151;28;20041;-71
2023/08/02 08:42:55;;;;;;;1999.90;999.90;;;16.70;99.90;;;;;;5073234;28;20508;-74
2023/08/02 08:45:22;;;;;;;1999.90;999.90;;;16.50;99.90;;;;;;5075216;28;20082;-69
2023/08/02 08:47:49;;;;;;;1999.90;999.90;;;16.60;99.90;;;;;;5060406;28;20126;-70
2023/08/02 08:50:16;;;;;;;1999.90;999.90;;;16.60;99.90;;;;;;5055564;28;20409;-71
2023/08/02 08:52:45;;;;;;;1999.90;999.90;;;16.60;99.90;;;;;;5054315;28;20045;-70
2023/08/02 08:55:13;;;;;;;1999.90;999.90;;;16.60;99.90;;;;;;5053426;28;20834;-71
2023/08/02 08:57:40;;;;;;;1999.90;999.90;;;16.70;99.90;;;;;;5072673;28;20044;-71
2023/08/02 09:00:09;;;;;;;1999.90;999.90;;;16.70;99.90;;;;;;5071538;28;20084;-70
2023/08/02 09:02:41;;;;;;;1999.90;999.90;;;16.80;99.90;;;;;;5059111;28;21005;-75
2023/08/02 09:05:08;;;;;;;1999.90;999.90;;;17.00;99.90;;;;;;5055489;28;20126;-73
2023/08/02 09:07:34;;;;;;;1999.90;999.90;;;16.90;99.90;;;;;;5074967;28;20044;-71
2023/08/02 09:09:59;;;;;;;1999.90;999.90;;;16.80;99.90;;;;;;5073269;28;20033;-71
2023/08/02 09:12:25;;;;;;;1999.90;999.90;;;16.80;99.90;;;;;;5056990;28;20410;-70
2023/08/02 09:15:02;;;;;;;1999.90;999.90;;;16.70;99.90;;;;;;5056200;28;20107;-70
2023/08/02 09:17:43;;;;;;;1999.90;999.90;;;16.60;99.90;;;;;;5052793;28;20508;-70
2023/08/02 09:20:09;;;;;;;1999.90;999.90;;;16.60;99.90;;;;;;5054727;28;20028;-71
2023/08/02 09:22:35;;;;;;;1999.90;999.90;;;16.60;99.90;;;;;;5068592;28;20174;-70
2023/08/02 09:25:03;;;;;;;1999.90;999.90;;;16.60;99.90;;;;;;5075444;28;20057;-70
2023/08/02 09:27:30;;;;;;;1999.90;999.90;;;16.70;99.90;;;;;;5071305;28;20037;-73
2023/08/02 09:29:56;;;;;;;1999.90;999.90;;;16.80;99.90;;;;;;5067263;28;20041;-70
2023/08/02 09:32:24;;;;;;;1999.90;999.90;;;16.90;99.90;;;;;;5064580;28;20468;-70
2023/08/02 09:34:52;;;;;;;1999.90;999.90;;;17.10;99.90;;;;;;5069968;28;20466;-74
2023/08/02 09:37:29;;;;;;;1999.90;999.90;;;17.30;99.90;;;;;;5073811;28;20033;-71
2023/08/02 09:39:55;;;;;;;1999.90;999.90;;;17.50;99.90;;;;;;5074164;28;20036;-70
2023/08/02 09:42:28;;;;;;;1999.90;999.90;;;17.80;99.90;;;;;;5067082;28;20037;-70
2023/08/02 09:44:55;;;;;;;1999.90;999.90;;;17.90;99.90;;;;;;5072603;28;20029;-70
2023/08/02 09:47:22;;;;;;;1999.90;999.90;;;18.00;99.90;;;;;;5071990;28;20032;-70
2023/08/02 09:50:07;;;;;;;1999.90;999.90;;;18.20;99.90;;;;;;5073716;28;20443;-71
2023/08/02 09:52:34;;;;;;;1999.90;999.90;;;18.00;99.90;;;;;;5065545;28;20116;-71
2023/08/02 09:55:00;;;;;;;1999.90;999.90;;;18.10;99.90;;;;;;5053569;28;20034;-72
2023/08/02 09:57:28;;;;;;;1999.90;999.90;;;17.90;99.90;;;;;;5063547;28;20040;-71
2023/08/02 09:59:55;;;;;;;1999.90;999.90;;;17.80;99.90;;;;;;5073511;28;20484;-71
2023/08/02 10:02:25;;;;;;;1999.90;999.90;;;17.70;99.90;;;;;;5067266;28;20432;-72
2023/08/02 10:04:59;;;;;;;1999.90;999.90;;;17.60;99.90;;;;;;5053409;28;20119;-71
2023/08/02 10:07:47;;;;;;;1999.90;999.90;;;17.60;99.90;;;;;;5053581;28;20034;-71
2023/08/02 10:10:24;;;;;;;1999.90;999.90;;;17.50;99.90;;;;;;5053675;28;20033;-72
2023/08/02 10:12:59;;;;;;;1999.90;999.90;;;17.50;99.90;;;;;;5064705;28;20040;-71
2023/08/02 10:15:25;;;;;;;1999.90;999.90;;;17.50;99.90;;;;;;5072906;28;20033;-74
2023/08/02 10:17:54;;;;;;;1999.90;999.90;;;17.50;99.90;;;;;;5068708;28;20039;-70
2023/08/02 10:20:20;;;;;;;1999.90;999.90;;;17.60;99.90;;;;;;5052713;28;20034;-71
2023/08/02 10:22:47;;;;;;;1999.90;999.90;;;17.80;99.90;;;;;;5053131;28;20041;-70
2023/08/02 10:25:16;;;;;;;1999.90;999.90;;;18.20;99.90;;;;;;5052876;28;20029;-73
2023/08/02 10:27:43;;;;;;;1999.90;999.90;;;18.30;99.90;;;;;;5066210;28;20045;-74
2023/08/02 10:30:11;;;;;;;1999.90;999.90;;;18.50;99.90;;;;;;5053097;28;20034;-71
2023/08/02 10:32:36;;;;;;;1999.90;999.90;;;18.60;99.90;;;;;;5051266;28;20037;-71
2023/08/02 10:35:02;;;;;;;1999.90;999.90;;;18.70;99.90;;;;;;5051322;28;20080;-72
2023/08/02 10:37:53;;;;;;;1999.90;999.90;;;18.80;99.90;;;;;;5053194;28;20033;-72
2023/08/02 10:40:21;;;;;;;1999.90;999.90;;;19.10;99.90;;;;;;5053043;28;20038;-71
2023/08/02 10:43:04;;;;;;;1999.90;999.90;;;19.20;99.90;;;;;;5065629;28;20052;-71
2023/08/02 10:45:30;;;;;;;1999.90;999.90;;;19.20;99.90;;;;;;5072751;28;20098;-71
2023/08/02 10:48:25;;;;;;;1999.90;999.90;;;19.10;99.90;;;;;;5070024;28;20095;-70
2023/08/02 10:50:51;;;;;;;1999.90;999.90;;;19.00;99.90;;;;;;5052843;28;20523;-71
2023/08/02 10:53:17;;;;;;;1999.90;999.90;;;18.90;99.90;;;;;;5052933;28;20060;-71
2023/08/02 10:56:03;;;;;;;1999.90;999.90;;;18.80;99.90;;;;;;5052451;28;20026;-71
2023/08/02 10:58:47;;;;;;;1999.90;999.90;;;18.70;99.90;;;;;;5061670;28;20041;-71
2023/08/02 11:01:13;;;;;;;1999.90;999.90;;;18.50;99.90;;;;;;5063446;28;20147;-70
2023/08/02 11:03:39;;;;;;;1999.90;999.90;;;18.30;99.90;;;;;;5072240;28;20462;-70
2023/08/02 11:06:05;;;;;;;1999.90;999.90;;;18.20;99.90;;;;;;5075906;28;20552;-71
2023/08/02 11:08:45;;;;;;;1999.90;999.90;;;18.20;99.90;;;;;;5063154;28;20109;-73
2023/08/02 11:11:10;;;;;;;1999.90;999.90;;;18.20;99.90;;;;;;5072324;28;20040;-74
2023/08/02 11:13:40;;;;;;;1999.90;999.90;;;18.20;99.90;;;;;;5074168;28;20044;-72
2023/08/02 11:16:06;;;;;;;1999.90;999.90;;;18.10;99.90;;;;;;5076990;28;20021;-74
2023/08/02 11:18:33;;;;;;;1999.90;999.90;;;18.10;99.90;;;;;;5071464;28;20040;-73
2023/08/02 11:21:13;;;;;;;1999.90;999.90;;;18.20;99.90;;;;;;5076755;28;20037;-72
2023/08/02 11:23:39;;;;;;;1999.90;999.90;;;18.20;99.90;;;;;;5063801;28;20566;-72
2023/08/02 11:26:10;;;;;;;1999.90;999.90;;;18.30;99.90;;;;;;5055775;28;20087;-73
2023/08/02 11:28:52;;;;;;;1999.90;999.90;;;18.30;99.90;;;;;;5068215;28;20108;-73
2023/08/02 11:31:18;;;;;;;1999.90;999.90;;;18.40;99.90;;;;;;5076380;28;20522;-73
2023/08/02 11:33:44;;;;;;;1999.90;999.90;;;18.20;99.90;;;;;;5067471;28;20065;-72
2023/08/02 11:36:10;;;;;;;1999.90;999.90;;;18.20;99.90;;;;;;5053998;28;20389;-72
2023/08/02 11:38:36;;;;;;;1999.90;999.90;;;18.10;99.90;;;;;;5065221;28;20041;-72
2023/08/02 11:41:02;;;;;;;1999.90;999.90;;;18.20;99.90;;;;;;5075774;28;20727;-72
2023/08/02 11:43:35;;;;;;;1999.90;999.90;;;18.10;99.90;;;;;;5074388;28;20052;-72
2023/08/02 11:46:21;;;;;;;1999.90;999.90;;;18.10;99.90;;;;;;5073519;28;20111;-73
2023/08/02 11:48:50;;;;;;;1999.90;999.90;;;18.20;99.90;;;;;;5064432;28;20041;-73
2023/08/02 11:51:18;;;;;;;1999.90;999.90;;;18.30;99.90;;;;;;5056264;28;20029;-73
2023/08/02 11:53:55;;;;;;;1999.90;999.90;;;18.40;99.90;;;;;;5063621;28;20496;-72
2023/08/02 11:56:22;;;;;;;1999.90;999.90;;;18.50;99.90;;;;;;5080229;28;20041;-73
2023/08/02 11:58:49;;;;;;;1999.90;999.90;;;18.60;99.90;;;;;;5084251;28;20044;-72